West Simsbury, Connecticut
Current Conditions -  °F | °C
As of 11:51 AM on Thursday 23 Oct 2014 (Local Time) from KBDL Reporting Station
Overcast Overcast  
Wind Chill: 51°   Ceiling: 1500
Heat Index: 51°   Visibility: 10mi
Dew Point: 46°   Wind: 15mph
Humidity: 83%   Direction: 360°N
Pressure: 29.68"   Gusts: 25mph
Location:  41.87°N, 72.84°W
Report Text: KBDL 231551Z 36013G22KT 10SM OVC015 11/08 A2968 RMK AO2 RAB06E39 SLP050 P0000 T01060078
Loading
Personal Weather Stations






























Interactive Weather Map
Tropical Storm Tracking
New forecast layout! Learn more

10-Day Weather Forecast

Advertisements
Track Severe Weather on mobile